MMUN/CUN METAR and TAF weather

Enter ICAO airport designator
Station Type Date Time Source
MMUN METAR 2020/04/07 15:43 UTC NOAA

MMUN 071543Z 11011KT 7SM SCT015 29/23 A3007 RMK 8/500


Station Type Date Time Source
MMUN Decoded METAR 2020/04/07 15:43 UTC NOAA

Cancun International Airport, Mexico (MMUN) 21-02N 086-52W
Apr 07, 2020 - 11:43 AM EDT / 2020.04.07 1543 UTC
Wind: from the ESE (110 degrees) at 13 MPH (11 KT):0
Visibility: 7 mile(s):0
Sky conditions: partly cloudy
Temperature: 84 F (29 C)
Dew Point: 73 F (23 C)
Relative Humidity: 70%
Pressure (altimeter): 30.07 in. Hg (1018 hPa)
ob: MMUN 071543Z 11011KT 7SM SCT015 29/23 A3007 RMK 8/500
cycle: 15

Station Type Date Time Source
MMUN TAF 2020/04/07 18:39 UTC NOAA

TAF MMUN 071638Z 0718/0824 12015KT P6SM SCT015 TX30/0720Z TN25/0812Z
FM080300 12010KT P6SM SKC
FM081500 12012KT P6SM SCT015

Example: see airport list